Latest Coastal Weather Observations for Creal Reef

IDQ60701

Issued at 4:22 pm EST Wednesday 26 February 2020 (issued every 10 minutes, with the page automatically refreshed every 10 minutes)

About coastal observations | Map of coastal stations | Coastal observations for QLD | Marine services | Other Formats
Station Details ID: 200736 Name: CREAL REEF Lat: -20.53 Lon: 150.38 Height: 1.7 m
Data from the previous 72 hours. | See also: Recent months for locations in Queensland
Date/Time
EST
Wind Sea
Height
m
Swell Vis
km
Cloud Weather Temp
°C
Press
hPa
Rain since
9am
mm
Dir  Spd
kts
Gust
kts
Height
m
Period
s
Dir
26/04:00pm NNW 8 10 - - - - - - - 28.1 1006.2 -
26/03:30pm NW 7 9 - - - - - - - 28.1 1006.4 -
26/03:00pm NW 7 9 - - - - - - - 28.1 1006.6 -
26/02:30pm WNW 8 10 - - - - - - - 28.3 1006.7 -
26/02:00pm NW 7 9 - - - - - - - 28.1 1007.2 -
26/01:30pm NW 8 10 - - - - - - - 28.1 1007.6 -
26/01:00pm WNW 8 10 - - - - - - - 28.1 1008.1 -
26/12:30pm NW 7 8 - - - - - - - 27.8 1008.6 -
26/12:00pm NW 8 10 - - - - - - - 27.8 1009.1 -
26/11:30am NNW 8 9 - - - - - - - 27.7 1009.3 -
26/11:00am NW 7 8 - - - - - - - 27.5 1009.5 -
26/10:30am NW 7 9 - - - - - - - 27.6 1009.6 -
26/10:00am NW 7 9 - - - - - - - 27.4 1009.9 -
26/09:30am NW 8 9 - - - - - - - 27.4 1009.8 -
26/09:00am NNW 7 8 - - - - - - - 27.6 1009.7 -
26/08:30am CALM 0 0 - - - - - - - 28.0 1009.8 -
26/08:00am N 1 3 - - - - - - - 27.9 1009.6 -
26/07:30am N 5 7 - - - - - - - 26.9 1009.3 -
26/07:00am N 2 5 - - - - - - - 27.4 1009.2 -
26/06:30am NNE 5 6 - - - - - - - 27.2 1009.1 -
26/06:00am ENE 4 6 - - - - - - - 27.0 1008.7 -
26/05:30am ENE 3 5 - - - - - - - 26.2 1008.6 -
26/05:00am ENE 8 10 - - - - - - - 25.5 1008.7 -
26/04:30am ENE 9 11 - - - - - - - 25.9 1008.6 -
26/04:00am CALM 0 0 - - - - - - - 26.5 1008.2 -
26/03:30am CALM 0 2 - - - - - - - 26.5 1008.1 -
26/03:00am WNW 5 7 - - - - - - - 26.4 1008.3 -
26/02:30am NW 11 13 - - - - - - - 26.5 1008.5 -
26/02:00am NNW 9 11 - - - - - - - 27.0 1008.5 -
26/01:30am NW 9 11 - - - - - - - 27.1 1008.8 -
26/01:00am N 9 11 - - - - - - - 27.2 1009.1 -
26/12:30am NNE 10 12 - - - - - - - 27.0 1009.4 -
26/12:00am E 5 6 - - - - - - - 27.9 1009.7 -
 
Date/Time
EST
Wind Sea
Height
m
Swell Vis
km
Cloud Weather Temp
°C
Press
hPa
Rain since
9am
mm
Dir  Spd
kts
Gust
kts
Height
m
Period
s
Dir
25/11:30pm E 5 7 - - - - - - - 27.9 1009.8 -
25/11:00pm ESE 5 7 - - - - - - - 27.9 1010.0 -
25/10:30pm ESE 4 6 - - - - - - - 27.8 1010.4 -
25/10:00pm ESE 4 6 - - - - - - - 27.9 1010.5 -
25/09:30pm ESE 5 6 - - - - - - - 27.8 1010.2 -
25/09:00pm ESE 5 6 - - - - - - - 27.8 1010.2 -
25/08:30pm ESE 5 6 - - - - - - - 27.6 1010.0 -
25/08:00pm ESE 6 7 - - - - - - - 27.4 1009.5 -
25/07:30pm ESE 7 8 - - - - - - - 27.2 1009.3 -
25/07:00pm SE 8 9 - - - - - - - 27.1 1009.1 -
25/06:30pm SSE 5 6 - - - - - - - 27.2 1009.2 -
25/06:00pm SSE 5 6 - - - - - - - 26.8 1008.9 -
25/05:30pm S 4 7 - - - - - - - 27.0 1008.8 -
25/05:00pm WNW 5 7 - - - - - - - 27.5 1008.4 -
25/04:30pm SSW 1 5 - - - - - - - 26.7 1008.2 -
25/04:00pm SSW 1 5 - - - - - - - 26.4 1008.3 -
25/03:30pm SSW 3 5 - - - - - - - 26.5 1008.4 -
25/03:00pm WSW 7 9 - - - - - - - 26.8 1008.7 -
25/02:30pm WNW 4 5 - - - - - - - 27.7 1008.9 -
25/02:00pm WNW 11 12 - - - - - - - 27.4 1009.2 -
25/01:30pm WNW 11 13 - - - - - - - 27.7 1009.3 -
25/01:00pm WNW 9 11 - - - - - - - 27.6 1009.5 -
25/12:30pm W 8 9 - - - - - - - 27.7 1010.0 -
25/12:00pm W 5 6 - - - - - - - 27.9 1010.0 -
25/11:30am W 5 7 - - - - - - - 28.2 1010.4 -
25/11:00am SW 6 9 - - - - - - - 27.7 1010.7 -
25/10:30am SW 8 10 - - - - - - - 27.4 1011.1 -
25/10:00am WSW 8 9 - - - - - - - 27.3 1011.3 -
25/09:30am WSW 9 11 - - - - - - - 27.1 1011.3 -
25/09:00am SW 9 11 - - - - - - - 26.9 1011.6 -
25/08:30am SW 6 8 - - - - - - - 26.7 1011.6 -
25/08:00am SW 10 13 - - - - - - - 26.1 1011.6 -
25/07:30am W 9 11 - - - - - - - 25.9 1011.3 -
25/07:00am WNW 6 8 - - - - - - - 25.6 1011.0 -
25/06:30am NW 8 11 - - - - - - - 25.5 1011.0 -
25/06:00am WSW 4 6 - - - - - - - 25.8 1010.7 -
25/05:30am NNW 10 13 - - - - - - - 25.1 1010.4 -
25/05:00am N 13 16 - - - - - - - 25.3 1010.3 -
25/04:30am NNW 5 12 - - - - - - - 25.9 1010.0 -
25/04:00am ENE 7 9 - - - - - - - 27.5 1009.8 -
25/03:30am ENE 7 9 - - - - - - - 27.3 1009.8 -
25/03:00am ENE 8 11 - - - - - - - 27.4 1009.7 -
25/02:30am NE 6 8 - - - - - - - 27.5 1009.9 -
25/02:00am NE 7 8 - - - - - - - 27.3 1010.2 -
25/01:30am NE 9 10 - - - - - - - 27.0 1010.5 -
25/01:00am NNE 6 9 - - - - - - - 27.3 1010.9 -
25/12:30am NNE 9 11 - - - - - - - 27.0 1011.2 -
25/12:00am N 8 9 - - - - - - - 27.1 1011.5 -
 
Date/Time
EST
Wind Sea
Height
m
Swell Vis
km
Cloud Weather Temp
°C
Press
hPa
Rain since
9am
mm
Dir  Spd
kts
Gust
kts
Height
m
Period
s
Dir
24/11:30pm N 9 10 - - - - - - - 27.0 1011.8 -
24/11:00pm NNE 10 13 - - - - - - - 26.8 1012.0 -
24/10:30pm NNE 14 16 - - - - - - - 26.5 1012.1 -
24/10:00pm N 13 15 - - - - - - - 26.8 1011.8 -
24/09:30pm ENE 13 16 - - - - - - - 26.2 1011.7 -
24/09:00pm NNE 9 11 - - - - - - - 27.6 1011.4 -
24/08:30pm NE 12 15 - - - - - - - 27.9 1011.3 -
24/08:00pm ENE 12 14 - - - - - - - 27.8 1010.9 -
24/07:30pm NE 13 15 - - - - - - - 27.9 1010.5 -
24/07:00pm ENE 12 14 - - - - - - - 27.7 1010.3 -
24/06:30pm ENE 12 14 - - - - - - - 27.4 1010.1 -
24/06:00pm ENE 11 13 - - - - - - - 27.3 1009.9 -
24/05:30pm ENE 11 12 - - - - - - - 27.3 1009.7 -
24/05:00pm E 11 12 - - - - - - - 27.3 1009.5 -
24/04:30pm ENE 9 11 - - - - - - - 27.3 1009.5 -
24/04:00pm ENE 8 9 - - - - - - - 27.5 1009.7 -
24/03:30pm NE 7 8 - - - - - - - 27.5 1009.9 -
24/03:00pm NE 5 6 - - - - - - - 27.5 1010.1 -
24/02:30pm NE 6 7 - - - - - - - 27.5 1010.3 -
24/02:00pm NE 7 8 - - - - - - - 27.4 1010.5 -
24/01:30pm NNE 5 7 - - - - - - - 27.4 1011.0 -
24/01:00pm CALM 0 0 - - - - - - - 27.6 1011.5 -
24/12:30pm CALM 0 0 - - - - - - - 27.4 1011.5 -
24/12:00pm NNE 1 4 - - - - - - - 27.2 1011.6 -
24/11:30am NNE 7 8 - - - - - - - 26.8 1011.7 -
24/11:00am NNE 11 13 - - - - - - - 26.9 1011.9 -
24/10:30am NNE 11 14 - - - - - - - 26.7 1012.1 -
24/10:00am NE 14 16 - - - - - - - 26.4 1012.2 -
24/09:30am NE 17 19 - - - - - - - 26.1 1012.4 -
24/09:00am ENE 19 22 - - - - - - - 26.2 1012.4 -
24/08:30am ENE 22 25 - - - - - - - 26.5 1012.3 -
24/08:00am E 22 24 - - - - - - - 26.4 1012.0 -
24/07:30am E 22 25 - - - - - - - 26.3 1011.7 -
24/07:00am ESE 22 25 - - - - - - - 25.9 1011.8 -
24/06:30am ESE 24 27 - - - - - - - 25.7 1011.6 -
24/06:00am ESE 26 30 - - - - - - - 25.4 1011.4 -
24/05:30am ESE 24 28 - - - - - - - 25.2 1011.6 -
24/05:00am SE 22 25 - - - - - - - 25.6 1011.3 -
24/04:30am ESE 18 20 - - - - - - - 25.9 1011.1 -
24/04:00am ESE 15 18 - - - - - - - 25.4 1010.9 -
24/03:30am ESE 15 18 - - - - - - - 25.2 1010.9 -
24/03:00am ENE 17 21 - - - - - - - 24.2 1011.1 -
24/02:30am ESE 14 17 - - - - - - - 27.0 1011.2 -
24/02:00am SE 14 17 - - - - - - - 26.7 1011.3 -
24/01:30am SE 15 16 - - - - - - - 26.8 1011.6 -
24/01:00am SE 15 18 - - - - - - - 26.4 1011.8 -
24/12:30am SE 17 19 - - - - - - - 26.5 1012.0 -
24/12:00am ESE 18 21 - - - - - - - 26.7 1012.3 -
 
Date/Time
EST
Wind Sea
Height
m
Swell Vis
km
Cloud Weather Temp
°C
Press
hPa
Rain since
9am
mm
Dir  Spd
kts
Gust
kts
Height
m
Period
s
Dir
23/11:30pm ESE 18 20 - - - - - - - 26.7 1012.7 -
23/11:00pm ESE 17 19 - - - - - - - 26.4 1012.8 -
23/10:30pm ESE 19 21 - - - - - - - 26.1 1012.7 -
23/10:00pm ESE 17 20 - - - - - - - 26.2 1012.6 -
23/09:30pm E 16 19 - - - - - - - 25.9 1012.8 -
23/09:00pm E 13 16 - - - - - - - 25.6 1012.5 -
23/08:30pm ENE 15 18 - - - - - - - 25.4 1012.4 -
23/08:00pm ENE 17 18 - - - - - - - 25.6 1012.3 -
23/07:30pm NE 18 21 - - - - - - - 25.1 1012.0 -
23/07:00pm NE 23 26 - - - - - - - 25.5 1011.6 -
23/06:44pm NNE 20 23 - - - - - - - 25.9 1011.5 -
23/06:40pm NE 15 23 - - - - - - - 26.0 1011.3 -
23/06:30pm ENE 11 13 - - - - - - - 26.6 1011.4 -
23/06:00pm NE 11 13 - - - - - - - 26.7 1011.0 -
23/05:30pm NE 12 15 - - - - - - - 26.2 1010.6 -
23/05:00pm ENE 14 17 - - - - - - - 25.5 1010.3 -
23/04:30pm E 10 11 - - - - - - - 26.2 1010.1 -

Other formats

Comma delimited format used in spreadsheet applications
http://www.bom.gov.au/fwo/IDQ60701/IDQ60701.94371.axf

JavaScript Object Notation format (JSON) in row-major order
http://www.bom.gov.au/fwo/IDQ60701/IDQ60701.94371.json

Data quality

Most of these data are generated automatically and are frequently updated. Quality checks on data are not normally performed. It is possible for incorrect values to appear. Refer to information at About Latest Weather Observations and please check the disclaimer before using these data.